Schwarzach Heliport LOSS

Flugplatz Daten

Name: Schwarzach Heliport

Ident: LOSS

Lat: 47,32444382

Long: 13,15499973

Platzhöhe: 2046 ft

IataCode:

City: Schwarzach

Metar

2022/06/11 08:18
ROIG 110818Z 22010KT 7000 R04/0700VP2000U SHRA FEW010 FEW020CB SCT021 BKN036 26/26 Q1007 RMK 1CU010 2CB020 3CU021 5CU036 A2975 WS 20KT LOSS OBS AT 0759Z ON SHORT FNA RWY22 BLW 1500FT IN APCH DH8C CB OHD AND 25KM N MOV NE

Taf

Gewünschte Webcam nicht vorhanden? Dann fügen Sie eine hinzu. Sie wird dann so schnell wie möglich freigeschaltet
Url: Title: